sensor_id;sensor_type;location;lat;lon;timestamp;P1;durP1;ratioP1;P2;durP2;ratioP2
11548;SDS011;61444;59.472;18.306;2022-08-25T00:00:28;3.17;;;1.30;;
11548;SDS011;61444;59.472;18.306;2022-08-25T00:02:38;1.50;;;1.40;;
11548;SDS011;61444;59.472;18.306;2022-08-25T00:05:01;1.73;;;1.40;;
11548;SDS011;61444;59.472;18.306;2022-08-25T00:07:10;1.80;;;1.60;;
11548;SDS011;61444;59.472;18.306;2022-08-25T00:09:25;1.37;;;1.27;;
11548;SDS011;61444;59.472;18.306;2022-08-25T00:11:34;2.30;;;1.30;;
11548;SDS011;61444;59.472;18.306;2022-08-25T00:13:45;1.93;;;1.50;;
11548;SDS011;61444;59.472;18.306;2022-08-25T00:15:54;2.43;;;1.40;;
11548;SDS011;61444;59.472;18.306;2022-08-25T00:18:04;1.70;;;1.37;;
11548;SDS011;61444;59.472;18.306;2022-08-25T00:20:25;1.80;;;1.60;;
11548;SDS011;61444;59.472;18.306;2022-08-25T00:22:34;2.30;;;1.63;;
11548;SDS011;61444;59.472;18.306;2022-08-25T00:24:42;1.90;;;1.37;;
11548;SDS011;61444;59.472;18.306;2022-08-25T00:26:52;2.70;;;1.53;;
11548;SDS011;61444;59.472;18.306;2022-08-25T00:29:01;3.70;;;1.40;;
11548;SDS011;61444;59.472;18.306;2022-08-25T00:31:11;3.13;;;1.40;;
11548;SDS011;61444;59.472;18.306;2022-08-25T00:33:21;3.93;;;1.60;;
11548;SDS011;61444;59.472;18.306;2022-08-25T00:35:30;2.37;;;1.70;;
11548;SDS011;61444;59.472;18.306;2022-08-25T00:37:38;2.90;;;1.63;;
11548;SDS011;61444;59.472;18.306;2022-08-25T00:39:50;2.73;;;1.40;;
11548;SDS011;61444;59.472;18.306;2022-08-25T00:42:00;2.50;;;1.43;;
11548;SDS011;61444;59.472;18.306;2022-08-25T00:44:13;3.60;;;1.23;;
11548;SDS011;61444;59.472;18.306;2022-08-25T00:46:25;1.63;;;1.40;;
11548;SDS011;61444;59.472;18.306;2022-08-25T00:48:36;1.50;;;1.40;;
11548;SDS011;61444;59.472;18.306;2022-08-25T00:50:45;2.17;;;1.50;;
11548;SDS011;61444;59.472;18.306;2022-08-25T00:52:55;2.33;;;1.30;;
11548;SDS011;61444;59.472;18.306;2022-08-25T00:55:06;2.30;;;1.40;;
11548;SDS011;61444;59.472;18.306;2022-08-25T00:57:18;2.43;;;1.43;;
11548;SDS011;61444;59.472;18.306;2022-08-25T00:59:40;1.43;;;1.23;;
11548;SDS011;61444;59.472;18.306;2022-08-25T01:01:50;2.30;;;1.43;;
11548;SDS011;61444;59.472;18.306;2022-08-25T01:04:01;1.40;;;1.30;;
11548;SDS011;61444;59.472;18.306;2022-08-25T01:06:10;5.20;;;1.47;;
11548;SDS011;61444;59.472;18.306;2022-08-25T01:08:19;2.90;;;1.50;;
11548;SDS011;61444;59.472;18.306;2022-08-25T01:10:28;1.93;;;1.30;;
11548;SDS011;61444;59.472;18.306;2022-08-25T01:12:37;4.10;;;1.40;;
11548;SDS011;61444;59.472;18.306;2022-08-25T01:14:45;1.40;;;1.30;;
11548;SDS011;61444;59.472;18.306;2022-08-25T01:16:55;1.40;;;1.30;;
11548;SDS011;61444;59.472;18.306;2022-08-25T01:19:08;3.37;;;1.47;;
11548;SDS011;61444;59.472;18.306;2022-08-25T01:21:25;2.80;;;1.40;;
11548;SDS011;61444;59.472;18.306;2022-08-25T01:23:35;1.67;;;1.23;;
11548;SDS011;61444;59.472;18.306;2022-08-25T01:25:45;2.60;;;1.30;;
11548;SDS011;61444;59.472;18.306;2022-08-25T01:27:56;1.60;;;1.30;;
11548;SDS011;61444;59.472;18.306;2022-08-25T01:30:05;2.20;;;1.30;;
11548;SDS011;61444;59.472;18.306;2022-08-25T01:32:14;3.30;;;1.47;;
11548;SDS011;61444;59.472;18.306;2022-08-25T01:34:23;2.90;;;1.57;;
11548;SDS011;61444;59.472;18.306;2022-08-25T01:36:33;2.23;;;1.40;;
11548;SDS011;61444;59.472;18.306;2022-08-25T01:38:42;1.50;;;1.40;;
11548;SDS011;61444;59.472;18.306;2022-08-25T01:40:51;1.37;;;1.27;;
11548;SDS011;61444;59.472;18.306;2022-08-25T01:43:02;3.30;;;1.50;;
11548;SDS011;61444;59.472;18.306;2022-08-25T01:45:13;2.03;;;1.30;;
11548;SDS011;61444;59.472;18.306;2022-08-25T01:47:22;1.53;;;1.40;;
11548;SDS011;61444;59.472;18.306;2022-08-25T01:49:30;3.23;;;1.70;;
11548;SDS011;61444;59.472;18.306;2022-08-25T01:51:41;4.10;;;1.50;;
11548;SDS011;61444;59.472;18.306;2022-08-25T01:53:50;1.87;;;1.30;;
11548;SDS011;61444;59.472;18.306;2022-08-25T01:55:59;3.93;;;1.40;;
11548;SDS011;61444;59.472;18.306;2022-08-25T01:58:15;1.70;;;1.60;;
11548;SDS011;61444;59.472;18.306;2022-08-25T02:00:23;1.50;;;1.40;;
11548;SDS011;61444;59.472;18.306;2022-08-25T02:02:32;1.50;;;1.40;;
11548;SDS011;61444;59.472;18.306;2022-08-25T02:04:41;1.47;;;1.33;;
11548;SDS011;61444;59.472;18.306;2022-08-25T02:06:51;3.17;;;1.47;;
11548;SDS011;61444;59.472;18.306;2022-08-25T02:09:01;1.70;;;1.60;;
11548;SDS011;61444;59.472;18.306;2022-08-25T02:11:10;1.40;;;1.30;;
11548;SDS011;61444;59.472;18.306;2022-08-25T02:13:19;2.87;;;1.57;;
11548;SDS011;61444;59.472;18.306;2022-08-25T02:15:38;1.87;;;1.77;;
11548;SDS011;61444;59.472;18.306;2022-08-25T02:17:50;2.40;;;1.50;;
11548;SDS011;61444;59.472;18.306;2022-08-25T02:19:58;2.10;;;1.53;;
11548;SDS011;61444;59.472;18.306;2022-08-25T02:22:08;1.50;;;1.40;;
11548;SDS011;61444;59.472;18.306;2022-08-25T02:24:17;1.50;;;1.40;;
11548;SDS011;61444;59.472;18.306;2022-08-25T02:26:26;2.30;;;1.40;;
11548;SDS011;61444;59.472;18.306;2022-08-25T02:28:35;1.70;;;1.60;;
11548;SDS011;61444;59.472;18.306;2022-08-25T02:30:43;3.80;;;1.80;;
11548;SDS011;61444;59.472;18.306;2022-08-25T02:32:53;2.73;;;1.60;;
11548;SDS011;61444;59.472;18.306;2022-08-25T02:35:03;1.57;;;1.40;;
11548;SDS011;61444;59.472;18.306;2022-08-25T02:37:13;2.03;;;1.50;;
11548;SDS011;61444;59.472;18.306;2022-08-25T02:39:22;1.50;;;1.40;;
11548;SDS011;61444;59.472;18.306;2022-08-25T02:41:31;1.97;;;1.70;;
11548;SDS011;61444;59.472;18.306;2022-08-25T02:43:40;1.57;;;1.47;;
11548;SDS011;61444;59.472;18.306;2022-08-25T02:45:50;1.90;;;1.50;;
11548;SDS011;61444;59.472;18.306;2022-08-25T02:47:58;1.83;;;1.60;;
11548;SDS011;61444;59.472;18.306;2022-08-25T02:50:09;1.50;;;1.30;;
11548;SDS011;61444;59.472;18.306;2022-08-25T02:52:19;1.37;;;1.27;;
11548;SDS011;61444;59.472;18.306;2022-08-25T02:54:27;1.60;;;1.50;;
11548;SDS011;61444;59.472;18.306;2022-08-25T02:56:36;3.03;;;1.50;;
11548;SDS011;61444;59.472;18.306;2022-08-25T02:58:45;1.43;;;1.20;;
11548;SDS011;61444;59.472;18.306;2022-08-25T03:00:55;2.20;;;1.40;;
11548;SDS011;61444;59.472;18.306;2022-08-25T03:03:04;1.93;;;1.40;;
11548;SDS011;61444;59.472;18.306;2022-08-25T03:05:15;1.50;;;1.40;;
11548;SDS011;61444;59.472;18.306;2022-08-25T03:07:25;2.67;;;1.60;;
11548;SDS011;61444;59.472;18.306;2022-08-25T03:09:40;1.40;;;1.30;;
11548;SDS011;61444;59.472;18.306;2022-08-25T03:11:50;1.60;;;1.20;;
11548;SDS011;61444;59.472;18.306;2022-08-25T03:13:59;1.83;;;1.30;;
11548;SDS011;61444;59.472;18.306;2022-08-25T03:16:09;1.73;;;1.50;;
11548;SDS011;61444;59.472;18.306;2022-08-25T03:18:18;1.77;;;1.67;;
11548;SDS011;61444;59.472;18.306;2022-08-25T03:20:29;2.40;;;1.50;;
11548;SDS011;61444;59.472;18.306;2022-08-25T03:22:42;2.00;;;1.40;;
11548;SDS011;61444;59.472;18.306;2022-08-25T03:24:50;2.43;;;1.50;;
11548;SDS011;61444;59.472;18.306;2022-08-25T03:27:29;1.50;;;1.10;;
11548;SDS011;61444;59.472;18.306;2022-08-25T03:29:37;2.20;;;2.00;;
11548;SDS011;61444;59.472;18.306;2022-08-25T03:31:48;1.77;;;1.13;;
11548;SDS011;61444;59.472;18.306;2022-08-25T03:33:57;1.60;;;1.50;;
11548;SDS011;61444;59.472;18.306;2022-08-25T03:36:06;1.60;;;1.43;;
11548;SDS011;61444;59.472;18.306;2022-08-25T03:38:17;1.50;;;1.40;;
11548;SDS011;61444;59.472;18.306;2022-08-25T03:40:26;1.57;;;1.30;;
11548;SDS011;61444;59.472;18.306;2022-08-25T03:42:35;1.63;;;1.40;;
11548;SDS011;61444;59.472;18.306;2022-08-25T03:44:50;2.13;;;1.37;;
11548;SDS011;61444;59.472;18.306;2022-08-25T03:46:59;2.67;;;1.37;;
11548;SDS011;61444;59.472;18.306;2022-08-25T03:49:08;1.50;;;1.40;;
11548;SDS011;61444;59.472;18.306;2022-08-25T03:51:18;2.67;;;1.63;;
11548;SDS011;61444;59.472;18.306;2022-08-25T03:53:28;2.20;;;1.50;;
11548;SDS011;61444;59.472;18.306;2022-08-25T03:55:37;1.80;;;1.37;;
11548;SDS011;61444;59.472;18.306;2022-08-25T03:57:45;3.53;;;1.30;;
11548;SDS011;61444;59.472;18.306;2022-08-25T03:59:55;1.90;;;1.70;;
11548;SDS011;61444;59.472;18.306;2022-08-25T04:02:04;2.80;;;1.40;;
11548;SDS011;61444;59.472;18.306;2022-08-25T04:04:14;1.97;;;1.43;;
11548;SDS011;61444;59.472;18.306;2022-08-25T04:06:22;2.47;;;1.60;;
11548;SDS011;61444;59.472;18.306;2022-08-25T04:08:34;2.27;;;1.50;;
11548;SDS011;61444;59.472;18.306;2022-08-25T04:10:42;2.00;;;1.60;;
11548;SDS011;61444;59.472;18.306;2022-08-25T04:12:51;2.30;;;1.40;;
11548;SDS011;61444;59.472;18.306;2022-08-25T04:15:01;1.80;;;1.50;;
11548;SDS011;61444;59.472;18.306;2022-08-25T04:17:09;2.60;;;1.53;;
11548;SDS011;61444;59.472;18.306;2022-08-25T04:19:18;1.90;;;1.57;;
11548;SDS011;61444;59.472;18.306;2022-08-25T04:21:27;1.90;;;1.60;;
11548;SDS011;61444;59.472;18.306;2022-08-25T04:23:37;2.80;;;1.57;;
11548;SDS011;61444;59.472;18.306;2022-08-25T04:25:47;1.97;;;1.43;;
11548;SDS011;61444;59.472;18.306;2022-08-25T04:27:55;1.40;;;1.30;;
11548;SDS011;61444;59.472;18.306;2022-08-25T04:30:04;1.60;;;1.50;;
11548;SDS011;61444;59.472;18.306;2022-08-25T04:32:13;2.67;;;1.40;;
11548;SDS011;61444;59.472;18.306;2022-08-25T04:34:23;1.77;;;1.40;;
11548;SDS011;61444;59.472;18.306;2022-08-25T04:36:36;2.93;;;1.60;;
11548;SDS011;61444;59.472;18.306;2022-08-25T04:38:46;1.83;;;1.33;;
11548;SDS011;61444;59.472;18.306;2022-08-25T04:40:56;2.07;;;1.60;;
11548;SDS011;61444;59.472;18.306;2022-08-25T04:43:04;2.17;;;1.50;;
11548;SDS011;61444;59.472;18.306;2022-08-25T04:45:13;3.03;;;1.40;;
11548;SDS011;61444;59.472;18.306;2022-08-25T04:47:21;1.40;;;1.30;;
11548;SDS011;61444;59.472;18.306;2022-08-25T04:49:33;3.77;;;1.40;;
11548;SDS011;61444;59.472;18.306;2022-08-25T04:51:44;1.40;;;1.27;;
11548;SDS011;61444;59.472;18.306;2022-08-25T04:53:57;1.40;;;1.20;;
11548;SDS011;61444;59.472;18.306;2022-08-25T04:56:06;3.93;;;1.30;;
11548;SDS011;61444;59.472;18.306;2022-08-25T04:58:15;1.67;;;1.57;;
11548;SDS011;61444;59.472;18.306;2022-08-25T05:00:24;1.73;;;1.57;;
11548;SDS011;61444;59.472;18.306;2022-08-25T05:02:32;1.70;;;1.60;;
11548;SDS011;61444;59.472;18.306;2022-08-25T05:04:41;2.50;;;1.37;;
11548;SDS011;61444;59.472;18.306;2022-08-25T05:06:50;1.70;;;1.60;;
11548;SDS011;61444;59.472;18.306;2022-08-25T05:09:00;4.20;;;1.47;;
11548;SDS011;61444;59.472;18.306;2022-08-25T05:11:11;1.50;;;1.40;;
11548;SDS011;61444;59.472;18.306;2022-08-25T05:13:21;1.80;;;1.70;;
11548;SDS011;61444;59.472;18.306;2022-08-25T05:15:29;2.03;;;1.40;;
11548;SDS011;61444;59.472;18.306;2022-08-25T05:17:56;1.73;;;1.50;;
11548;SDS011;61444;59.472;18.306;2022-08-25T05:20:05;1.63;;;1.53;;
11548;SDS011;61444;59.472;18.306;2022-08-25T05:22:14;2.67;;;1.47;;
11548;SDS011;61444;59.472;18.306;2022-08-25T05:24:24;1.87;;;1.50;;
11548;SDS011;61444;59.472;18.306;2022-08-25T05:26:33;1.97;;;1.60;;
11548;SDS011;61444;59.472;18.306;2022-08-25T05:28:44;1.87;;;1.47;;
11548;SDS011;61444;59.472;18.306;2022-08-25T05:30:56;1.77;;;1.30;;
11548;SDS011;61444;59.472;18.306;2022-08-25T05:33:05;6.60;;;1.63;;
11548;SDS011;61444;59.472;18.306;2022-08-25T05:35:13;2.80;;;1.90;;
11548;SDS011;61444;59.472;18.306;2022-08-25T05:37:22;1.50;;;1.40;;
11548;SDS011;61444;59.472;18.306;2022-08-25T05:39:32;2.33;;;1.40;;
11548;SDS011;61444;59.472;18.306;2022-08-25T05:41:40;2.27;;;1.47;;
11548;SDS011;61444;59.472;18.306;2022-08-25T05:43:49;3.70;;;1.57;;
11548;SDS011;61444;59.472;18.306;2022-08-25T05:45:58;1.60;;;1.50;;
11548;SDS011;61444;59.472;18.306;2022-08-25T05:48:07;3.37;;;1.60;;
11548;SDS011;61444;59.472;18.306;2022-08-25T05:50:15;2.33;;;1.43;;
11548;SDS011;61444;59.472;18.306;2022-08-25T05:52:25;5.30;;;1.50;;
11548;SDS011;61444;59.472;18.306;2022-08-25T05:54:35;3.43;;;1.50;;
11548;SDS011;61444;59.472;18.306;2022-08-25T05:56:45;2.50;;;1.60;;
11548;SDS011;61444;59.472;18.306;2022-08-25T05:58:53;2.50;;;1.50;;
11548;SDS011;61444;59.472;18.306;2022-08-25T06:01:02;4.00;;;1.60;;
11548;SDS011;61444;59.472;18.306;2022-08-25T06:03:25;3.47;;;1.70;;
11548;SDS011;61444;59.472;18.306;2022-08-25T06:05:33;3.30;;;1.50;;
11548;SDS011;61444;59.472;18.306;2022-08-25T06:07:42;3.37;;;1.50;;
11548;SDS011;61444;59.472;18.306;2022-08-25T06:09:52;5.83;;;1.50;;
11548;SDS011;61444;59.472;18.306;2022-08-25T06:12:01;2.43;;;1.30;;
11548;SDS011;61444;59.472;18.306;2022-08-25T06:14:09;2.20;;;1.60;;
11548;SDS011;61444;59.472;18.306;2022-08-25T06:16:18;2.90;;;1.80;;
11548;SDS011;61444;59.472;18.306;2022-08-25T06:18:26;1.97;;;1.53;;
11548;SDS011;61444;59.472;18.306;2022-08-25T06:20:35;2.03;;;1.70;;
11548;SDS011;61444;59.472;18.306;2022-08-25T06:22:43;1.93;;;1.63;;
11548;SDS011;61444;59.472;18.306;2022-08-25T06:24:53;1.40;;;1.30;;
11548;SDS011;61444;59.472;18.306;2022-08-25T06:27:02;1.67;;;1.30;;
11548;SDS011;61444;59.472;18.306;2022-08-25T06:29:13;2.67;;;1.40;;
11548;SDS011;61444;59.472;18.306;2022-08-25T06:31:23;3.93;;;1.40;;
11548;SDS011;61444;59.472;18.306;2022-08-25T06:33:31;3.53;;;1.67;;
11548;SDS011;61444;59.472;18.306;2022-08-25T06:35:40;2.93;;;1.77;;
11548;SDS011;61444;59.472;18.306;2022-08-25T06:37:49;2.10;;;1.40;;
11548;SDS011;61444;59.472;18.306;2022-08-25T06:39:59;1.57;;;1.43;;
11548;SDS011;61444;59.472;18.306;2022-08-25T06:42:08;3.13;;;1.67;;
11548;SDS011;61444;59.472;18.306;2022-08-25T06:44:16;4.90;;;1.60;;
11548;SDS011;61444;59.472;18.306;2022-08-25T06:46:25;1.83;;;1.10;;
11548;SDS011;61444;59.472;18.306;2022-08-25T06:48:42;1.03;;;0.93;;
11548;SDS011;61444;59.472;18.306;2022-08-25T06:50:50;2.20;;;1.10;;
11548;SDS011;61444;59.472;18.306;2022-08-25T06:53:00;1.63;;;1.13;;
11548;SDS011;61444;59.472;18.306;2022-08-25T06:55:19;1.93;;;1.10;;
11548;SDS011;61444;59.472;18.306;2022-08-25T06:57:28;2.50;;;1.17;;
11548;SDS011;61444;59.472;18.306;2022-08-25T06:59:38;3.23;;;1.10;;
11548;SDS011;61444;59.472;18.306;2022-08-25T07:01:46;2.67;;;1.30;;
11548;SDS011;61444;59.472;18.306;2022-08-25T07:03:59;3.47;;;1.00;;
11548;SDS011;61444;59.472;18.306;2022-08-25T07:06:08;1.97;;;1.20;;
11548;SDS011;61444;59.472;18.306;2022-08-25T07:08:17;1.53;;;1.40;;
11548;SDS011;61444;59.472;18.306;2022-08-25T07:10:27;1.47;;;1.30;;
11548;SDS011;61444;59.472;18.306;2022-08-25T07:12:36;1.70;;;1.20;;
11548;SDS011;61444;59.472;18.306;2022-08-25T07:14:45;1.60;;;1.17;;
11548;SDS011;61444;59.472;18.306;2022-08-25T07:17:09;1.20;;;1.10;;
11548;SDS011;61444;59.472;18.306;2022-08-25T07:19:18;1.37;;;1.10;;
11548;SDS011;61444;59.472;18.306;2022-08-25T07:21:27;2.33;;;1.13;;
11548;SDS011;61444;59.472;18.306;2022-08-25T07:23:43;1.00;;;1.00;;
11548;SDS011;61444;59.472;18.306;2022-08-25T07:25:54;1.83;;;1.20;;
11548;SDS011;61444;59.472;18.306;2022-08-25T07:28:03;2.00;;;1.40;;
11548;SDS011;61444;59.472;18.306;2022-08-25T07:30:15;1.40;;;1.30;;
11548;SDS011;61444;59.472;18.306;2022-08-25T07:32:23;1.33;;;1.20;;
11548;SDS011;61444;59.472;18.306;2022-08-25T07:34:32;1.50;;;1.40;;
11548;SDS011;61444;59.472;18.306;2022-08-25T07:36:58;1.53;;;1.40;;
11548;SDS011;61444;59.472;18.306;2022-08-25T07:39:11;3.13;;;1.87;;
11548;SDS011;61444;59.472;18.306;2022-08-25T07:41:21;1.70;;;1.60;;
11548;SDS011;61444;59.472;18.306;2022-08-25T07:43:30;2.10;;;1.60;;
11548;SDS011;61444;59.472;18.306;2022-08-25T07:45:41;3.17;;;1.60;;
11548;SDS011;61444;59.472;18.306;2022-08-25T07:47:54;1.40;;;1.30;;
11548;SDS011;61444;59.472;18.306;2022-08-25T07:50:03;0.93;;;0.93;;
11548;SDS011;61444;59.472;18.306;2022-08-25T07:52:12;1.90;;;1.33;;
11548;SDS011;61444;59.472;18.306;2022-08-25T07:54:21;1.30;;;1.20;;
11548;SDS011;61444;59.472;18.306;2022-08-25T07:56:41;0.90;;;0.90;;
11548;SDS011;61444;59.472;18.306;2022-08-25T07:58:50;1.30;;;1.20;;
11548;SDS011;61444;59.472;18.306;2022-08-25T08:00:58;1.00;;;1.00;;
11548;SDS011;61444;59.472;18.306;2022-08-25T08:03:08;1.10;;;1.00;;
11548;SDS011;61444;59.472;18.306;2022-08-25T08:05:38;2.40;;;1.17;;
11548;SDS011;61444;59.472;18.306;2022-08-25T08:07:47;1.10;;;1.00;;
11548;SDS011;61444;59.472;18.306;2022-08-25T08:09:56;2.13;;;1.10;;
11548;SDS011;61444;59.472;18.306;2022-08-25T08:12:26;1.20;;;1.00;;
11548;SDS011;61444;59.472;18.306;2022-08-25T08:14:36;1.30;;;0.97;;
11548;SDS011;61444;59.472;18.306;2022-08-25T08:16:51;2.30;;;1.23;;
11548;SDS011;61444;59.472;18.306;2022-08-25T08:19:01;1.53;;;1.30;;
11548;SDS011;61444;59.472;18.306;2022-08-25T08:21:11;1.50;;;1.00;;
11548;SDS011;61444;59.472;18.306;2022-08-25T08:23:25;1.30;;;1.00;;
11548;SDS011;61444;59.472;18.306;2022-08-25T08:25:34;0.90;;;0.90;;
11548;SDS011;61444;59.472;18.306;2022-08-25T08:27:44;1.00;;;1.00;;
11548;SDS011;61444;59.472;18.306;2022-08-25T08:29:53;1.90;;;1.07;;
11548;SDS011;61444;59.472;18.306;2022-08-25T08:32:06;1.30;;;0.97;;
11548;SDS011;61444;59.472;18.306;2022-08-25T08:34:15;1.00;;;0.90;;
11548;SDS011;61444;59.472;18.306;2022-08-25T08:36:24;1.00;;;1.00;;
11548;SDS011;61444;59.472;18.306;2022-08-25T08:38:35;0.93;;;0.90;;
11548;SDS011;61444;59.472;18.306;2022-08-25T08:40:47;1.20;;;1.10;;
11548;SDS011;61444;59.472;18.306;2022-08-25T08:43:18;1.63;;;1.10;;
11548;SDS011;61444;59.472;18.306;2022-08-25T08:45:33;1.63;;;1.17;;
11548;SDS011;61444;59.472;18.306;2022-08-25T08:47:52;1.57;;;1.10;;
11548;SDS011;61444;59.472;18.306;2022-08-25T08:50:05;1.60;;;1.00;;
11548;SDS011;61444;59.472;18.306;2022-08-25T08:52:18;1.47;;;1.30;;
11548;SDS011;61444;59.472;18.306;2022-08-25T08:54:36;1.27;;;1.20;;
11548;SDS011;61444;59.472;18.306;2022-08-25T08:56:47;1.17;;;1.07;;
11548;SDS011;61444;59.472;18.306;2022-08-25T08:59:00;5.27;;;1.10;;
11548;SDS011;61444;59.472;18.306;2022-08-25T09:01:15;1.47;;;1.20;;
11548;SDS011;61444;59.472;18.306;2022-08-25T09:03:26;1.60;;;1.50;;
11548;SDS011;61444;59.472;18.306;2022-08-25T09:05:38;1.20;;;1.00;;
11548;SDS011;61444;59.472;18.306;2022-08-25T09:07:53;1.30;;;1.20;;
11548;SDS011;61444;59.472;18.306;2022-08-25T09:10:02;1.37;;;1.10;;
11548;SDS011;61444;59.472;18.306;2022-08-25T09:12:12;1.30;;;1.20;;
11548;SDS011;61444;59.472;18.306;2022-08-25T09:17:01;1.67;;;1.10;;
11548;SDS011;61444;59.472;18.306;2022-08-25T09:19:15;1.40;;;1.30;;
11548;SDS011;61444;59.472;18.306;2022-08-25T09:21:29;1.53;;;1.43;;
11548;SDS011;61444;59.472;18.306;2022-08-25T09:23:53;1.20;;;1.10;;
11548;SDS011;61444;59.472;18.306;2022-08-25T09:26:13;1.20;;;1.10;;
11548;SDS011;61444;59.472;18.306;2022-08-25T09:28:29;2.50;;;1.20;;
11548;SDS011;61444;59.472;18.306;2022-08-25T09:30:40;1.63;;;1.00;;
11548;SDS011;61444;59.472;18.306;2022-08-25T09:32:54;1.07;;;0.97;;
11548;SDS011;61444;59.472;18.306;2022-08-25T09:35:13;1.93;;;1.10;;
11548;SDS011;61444;59.472;18.306;2022-08-25T09:37:22;1.23;;;1.10;;
11548;SDS011;61444;59.472;18.306;2022-08-25T09:39:33;1.53;;;1.23;;
11548;SDS011;61444;59.472;18.306;2022-08-25T09:41:44;1.30;;;1.20;;
11548;SDS011;61444;59.472;18.306;2022-08-25T09:43:56;1.63;;;1.20;;
11548;SDS011;61444;59.472;18.306;2022-08-25T09:46:08;1.20;;;1.10;;
11548;SDS011;61444;59.472;18.306;2022-08-25T09:48:23;1.83;;;0.83;;
11548;SDS011;61444;59.472;18.306;2022-08-25T09:50:33;2.00;;;1.10;;
11548;SDS011;61444;59.472;18.306;2022-08-25T09:52:42;1.73;;;1.17;;
11548;SDS011;61444;59.472;18.306;2022-08-25T09:54:59;1.80;;;1.13;;
11548;SDS011;61444;59.472;18.306;2022-08-25T09:57:08;1.13;;;1.03;;
11548;SDS011;61444;59.472;18.306;2022-08-25T09:59:36;3.27;;;1.27;;
11548;SDS011;61444;59.472;18.306;2022-08-25T10:01:46;1.10;;;0.97;;
11548;SDS011;61444;59.472;18.306;2022-08-25T10:04:01;1.83;;;0.90;;
11548;SDS011;61444;59.472;18.306;2022-08-25T10:06:11;1.87;;;1.17;;
11548;SDS011;61444;59.472;18.306;2022-08-25T10:08:24;0.90;;;0.90;;
11548;SDS011;61444;59.472;18.306;2022-08-25T10:10:34;1.07;;;0.90;;
11548;SDS011;61444;59.472;18.306;2022-08-25T10:12:47;1.63;;;1.00;;
11548;SDS011;61444;59.472;18.306;2022-08-25T10:14:56;1.30;;;1.00;;
11548;SDS011;61444;59.472;18.306;2022-08-25T10:17:13;1.10;;;1.00;;
11548;SDS011;61444;59.472;18.306;2022-08-25T10:19:24;1.33;;;1.17;;
11548;SDS011;61444;59.472;18.306;2022-08-25T10:21:36;2.40;;;0.90;;
11548;SDS011;61444;59.472;18.306;2022-08-25T10:23:46;1.10;;;1.00;;
11548;SDS011;61444;59.472;18.306;2022-08-25T10:25:57;1.40;;;1.00;;
11548;SDS011;61444;59.472;18.306;2022-08-25T10:28:10;1.00;;;0.90;;
11548;SDS011;61444;59.472;18.306;2022-08-25T10:30:27;1.40;;;1.03;;
11548;SDS011;61444;59.472;18.306;2022-08-25T10:32:48;1.50;;;0.93;;
11548;SDS011;61444;59.472;18.306;2022-08-25T10:35:01;2.80;;;1.00;;
11548;SDS011;61444;59.472;18.306;2022-08-25T10:37:19;1.10;;;1.00;;
11548;SDS011;61444;59.472;18.306;2022-08-25T10:39:33;2.87;;;1.10;;
11548;SDS011;61444;59.472;18.306;2022-08-25T10:41:49;0.90;;;0.90;;
11548;SDS011;61444;59.472;18.306;2022-08-25T10:44:07;1.00;;;0.90;;
11548;SDS011;61444;59.472;18.306;2022-08-25T10:46:40;1.10;;;1.00;;
11548;SDS011;61444;59.472;18.306;2022-08-25T10:48:54;1.03;;;1.00;;
11548;SDS011;61444;59.472;18.306;2022-08-25T10:51:09;1.10;;;1.00;;
11548;SDS011;61444;59.472;18.306;2022-08-25T10:53:28;1.37;;;1.00;;
11548;SDS011;61444;59.472;18.306;2022-08-25T10:55:43;2.67;;;1.10;;
11548;SDS011;61444;59.472;18.306;2022-08-25T10:57:57;1.10;;;0.93;;
11548;SDS011;61444;59.472;18.306;2022-08-25T11:00:20;1.00;;;0.90;;
11548;SDS011;61444;59.472;18.306;2022-08-25T11:02:46;1.30;;;1.20;;
11548;SDS011;61444;59.472;18.306;2022-08-25T11:05:00;1.23;;;1.13;;
11548;SDS011;61444;59.472;18.306;2022-08-25T11:07:15;1.27;;;1.13;;
11548;SDS011;61444;59.472;18.306;2022-08-25T11:09:29;1.20;;;1.10;;
11548;SDS011;61444;59.472;18.306;2022-08-25T11:11:44;1.83;;;1.73;;
11548;SDS011;61444;59.472;18.306;2022-08-25T11:13:55;1.40;;;1.30;;
11548;SDS011;61444;59.472;18.306;2022-08-25T11:16:07;1.60;;;1.10;;
11548;SDS011;61444;59.472;18.306;2022-08-25T11:18:24;1.40;;;1.10;;
11548;SDS011;61444;59.472;18.306;2022-08-25T11:20:37;1.10;;;0.90;;
11548;SDS011;61444;59.472;18.306;2022-08-25T11:22:51;1.30;;;1.20;;
11548;SDS011;61444;59.472;18.306;2022-08-25T11:25:06;1.23;;;1.10;;
11548;SDS011;61444;59.472;18.306;2022-08-25T11:27:24;1.30;;;1.00;;
11548;SDS011;61444;59.472;18.306;2022-08-25T11:29:35;1.30;;;1.10;;
11548;SDS011;61444;59.472;18.306;2022-08-25T11:31:48;1.27;;;1.10;;
11548;SDS011;61444;59.472;18.306;2022-08-25T11:33:59;2.17;;;1.10;;
11548;SDS011;61444;59.472;18.306;2022-08-25T11:36:10;1.47;;;1.37;;
11548;SDS011;61444;59.472;18.306;2022-08-25T11:38:27;3.13;;;1.33;;
11548;SDS011;61444;59.472;18.306;2022-08-25T11:40:43;1.43;;;1.30;;
11548;SDS011;61444;59.472;18.306;2022-08-25T11:42:59;1.63;;;1.03;;
11548;SDS011;61444;59.472;18.306;2022-08-25T11:45:10;1.83;;;1.00;;
11548;SDS011;61444;59.472;18.306;2022-08-25T11:47:27;2.63;;;1.10;;
11548;SDS011;61444;59.472;18.306;2022-08-25T11:49:43;1.20;;;1.10;;
11548;SDS011;61444;59.472;18.306;2022-08-25T11:51:59;2.00;;;1.10;;
11548;SDS011;61444;59.472;18.306;2022-08-25T11:54:21;1.53;;;1.13;;
11548;SDS011;61444;59.472;18.306;2022-08-25T11:56:32;1.30;;;1.20;;
11548;SDS011;61444;59.472;18.306;2022-08-25T11:58:43;1.20;;;1.10;;
11548;SDS011;61444;59.472;18.306;2022-08-25T12:00:55;2.53;;;1.27;;
11548;SDS011;61444;59.472;18.306;2022-08-25T12:05:51;1.40;;;1.30;;
11548;SDS011;61444;59.472;18.306;2022-08-25T12:08:01;1.20;;;1.10;;
11548;SDS011;61444;59.472;18.306;2022-08-25T12:10:29;1.30;;;1.20;;
11548;SDS011;61444;59.472;18.306;2022-08-25T12:13:04;1.37;;;1.17;;
11548;SDS011;61444;59.472;18.306;2022-08-25T12:18:07;1.13;;;1.10;;
11548;SDS011;61444;59.472;18.306;2022-08-25T12:20:16;1.20;;;1.10;;
11548;SDS011;61444;59.472;18.306;2022-08-25T12:25:02;1.40;;;1.30;;
11548;SDS011;61444;59.472;18.306;2022-08-25T12:27:21;1.10;;;1.10;;
11548;SDS011;61444;59.472;18.306;2022-08-25T12:29:36;1.77;;;1.13;;
11548;SDS011;61444;59.472;18.306;2022-08-25T12:32:03;1.43;;;1.30;;
11548;SDS011;61444;59.472;18.306;2022-08-25T12:34:20;1.27;;;1.13;;
11548;SDS011;61444;59.472;18.306;2022-08-25T12:36:33;1.23;;;1.13;;
11548;SDS011;61444;59.472;18.306;2022-08-25T12:38:43;1.20;;;1.10;;
11548;SDS011;61444;59.472;18.306;2022-08-25T12:40:59;1.47;;;1.37;;
11548;SDS011;61444;59.472;18.306;2022-08-25T12:43:11;2.00;;;1.33;;
11548;SDS011;61444;59.472;18.306;2022-08-25T12:45:35;1.37;;;1.20;;
11548;SDS011;61444;59.472;18.306;2022-08-25T12:47:45;1.33;;;1.27;;
11548;SDS011;61444;59.472;18.306;2022-08-25T12:52:18;1.67;;;1.30;;
11548;SDS011;61444;59.472;18.306;2022-08-25T12:54:46;1.67;;;1.20;;
11548;SDS011;61444;59.472;18.306;2022-08-25T12:56:56;1.67;;;1.30;;
11548;SDS011;61444;59.472;18.306;2022-08-25T12:59:13;1.40;;;1.30;;
11548;SDS011;61444;59.472;18.306;2022-08-25T13:01:25;1.40;;;1.30;;
11548;SDS011;61444;59.472;18.306;2022-08-25T13:03:45;1.20;;;1.13;;
11548;SDS011;61444;59.472;18.306;2022-08-25T13:06:01;1.30;;;1.20;;
11548;SDS011;61444;59.472;18.306;2022-08-25T13:08:19;2.03;;;1.20;;
11548;SDS011;61444;59.472;18.306;2022-08-25T13:10:43;1.37;;;1.27;;
11548;SDS011;61444;59.472;18.306;2022-08-25T13:12:55;1.77;;;1.30;;
11548;SDS011;61444;59.472;18.306;2022-08-25T13:15:09;1.87;;;1.30;;